Main page
METAR-TAF:

METAR-TAF

Airports :

Piarco International Airport

Port of Spain, Trinidad, Trinidad and Tobago

latitude: 10-37N, longitude: 061-21W, elevation: 12 m

Current weather observation

The report was made 1 hour and 7 minutes ago, at 14:00 UTC
Wind 15 kt from the East
Temperature 31°C
Humidity 59%
Pressure 1014 hPa
Visibility 10 km or more
Few clouds at a height of 1800 ft

METAR: TTPP 091400Z 10015KT 9999 FEW018 31/22 Q1014 NOSIG

Time: 11:07 (15:07 UTC)

Forecast

The report was made 5 hours and 7 minutes ago, at 10:00 UTC
Forecast valid from 09 at 12 UTC to 10 at 12 UTC
Wind 10 kt from the East
Visibility 10 km or more
Few clouds at a height of 2000 ft
Becoming
from 09 at 23 UTC to 10 at 01 UTC
Wind kt from the North

TAF: TTPP 091000Z 0912/1012 10010KT 9999 FEW020 BECMG 0923/1001 00000KT

Weather observations and forecasts of more than 4000 airports (METAR and TAF reports).

The available stations are represented by yellow and red dots on the map.

Hover mouse over dot to see the name of the station.

Then click to see weather observations and forecasts.

To change the map : click on the green buttons with a black cross to zoom in, on the green button with a dash to zoom out, or on the green arrows for adjacent maps.


METAR-TAF: